Time,TemperatureF,DewpointF,PressureIn,WindDirection,WindDirectionDegrees,WindSpeedMPH,WindSpeedGustMPH,Humidity,HourlyPrecipIn,Conditions,Clouds,dailyrainin,SoftwareType,DateUTC
2013-03-26 00:03:00,29.5,11.8,30.08,WSW,246,0.0,0.0,47,0.00,,---,0.00,VWS V13.01,2013-03-26 06:03:00,
2013-03-26 00:08:00,29.7,12.4,30.08,WSW,246,0.0,0.0,48,0.00,,---,0.00,VWS V13.01,2013-03-26 06:08:00,
2013-03-26 00:14:00,29.8,12.0,30.08,WSW,246,0.0,0.0,47,0.00,,---,0.00,VWS V13.01,2013-03-26 06:14:00,
2013-03-26 00:19:00,30.0,12.2,30.06,WSW,246,0.0,0.0,47,0.00,,---,0.00,VWS V13.01,2013-03-26 06:19:00,
2013-03-26 00:24:00,30.1,12.3,30.06,WSW,246,0.0,0.0,47,0.00,,---,0.00,VWS V13.01,2013-03-26 06:24:00,
2013-03-26 00:29:00,30.1,12.3,30.06,WSW,246,0.0,0.0,47,0.00,,---,0.00,VWS V13.01,2013-03-26 06:29:00,
2013-03-26 00:34:00,30.3,12.5,30.05,WSW,247,0.0,0.0,47,0.00,,---,0.00,VWS V13.01,2013-03-26 06:34:00,
2013-03-26 00:39:00,30.4,13.1,30.05,WSW,246,0.0,0.0,48,0.00,,---,0.00,VWS V13.01,2013-03-26 06:39:00,
2013-03-26 00:45:00,30.6,12.8,30.05,WSW,247,0.0,0.0,47,0.00,,---,0.00,VWS V13.01,2013-03-26 06:45:00,
2013-03-26 00:50:00,30.7,12.9,30.04,WSW,246,0.0,0.0,47,0.00,,---,0.00,VWS V13.01,2013-03-26 06:50:00,
2013-03-26 00:55:00,30.7,12.9,30.04,WSW,246,0.0,0.0,47,0.00,,---,0.00,VWS V13.01,2013-03-26 06:55:00,
2013-03-26 01:00:00,30.7,12.4,30.04,WSW,246,0.0,0.0,46,0.00,,---,0.00,VWS V13.01,2013-03-26 07:00:00,
2013-03-26 01:06:00,30.7,12.9,30.04,WSW,246,0.0,0.0,47,0.00,,---,0.00,VWS V13.01,2013-03-26 07:06:00,
2013-03-26 01:11:00,30.6,12.8,30.04,WSW,246,0.0,0.0,47,0.00,,---,0.00,VWS V13.01,2013-03-26 07:11:00,
2013-03-26 01:16:00,30.4,12.6,30.02,WSW,247,0.0,0.0,47,0.00,,---,0.00,VWS V13.01,2013-03-26 07:16:00,
2013-03-26 01:21:00,30.3,13.0,30.02,WSW,246,0.0,0.0,48,0.00,,---,0.00,VWS V13.01,2013-03-26 07:21:00,
2013-03-26 01:26:00,30.0,12.7,30.02,WSW,246,0.0,0.0,48,0.00,,---,0.00,VWS V13.01,2013-03-26 07:26:00,
2013-03-26 01:31:00,30.0,12.7,30.01,WSW,246,0.0,0.0,48,0.00,,---,0.00,VWS V13.01,2013-03-26 07:31:00,
2013-03-26 01:36:00,30.0,12.7,30.01,WSW,246,0.0,0.0,48,0.00,,---,0.00,VWS V13.01,2013-03-26 07:36:00,
2013-03-26 01:42:00,30.0,13.2,30.01,WSW,246,0.0,0.0,49,0.00,,---,0.00,VWS V13.01,2013-03-26 07:42:00,
2013-03-26 01:47:00,30.1,12.8,30.01,WSW,246,0.0,0.0,48,0.00,,---,0.00,VWS V13.01,2013-03-26 07:47:00,
2013-03-26 01:52:00,30.1,12.3,30.01,WSW,246,0.0,0.0,47,0.00,,---,0.00,VWS V13.01,2013-03-26 07:52:00,
2013-03-26 01:57:00,30.3,12.5,30.01,WSW,246,0.0,0.0,47,0.00,,---,0.00,VWS V13.01,2013-03-26 07:57:00,
2013-03-26 02:03:00,30.3,12.5,30.01,WSW,246,0.0,0.0,47,0.00,,---,0.00,VWS V13.01,2013-03-26 08:03:00,
2013-03-26 02:08:00,30.1,11.8,30.01,WSW,246,0.0,0.0,46,0.00,,---,0.00,VWS V13.01,2013-03-26 08:08:00,
2013-03-26 02:13:00,30.1,13.7,30.01,WSW,246,0.0,0.0,50,0.00,,---,0.00,VWS V13.01,2013-03-26 08:13:00,
2013-03-26 02:18:00,30.0,12.7,30.01,WSW,246,0.0,0.0,48,0.00,,---,0.00,VWS V13.01,2013-03-26 08:18:00,
2013-03-26 02:23:00,29.8,13.0,30.01,WSW,246,0.0,0.0,49,0.00,,---,0.00,VWS V13.01,2013-03-26 08:23:00,
2013-03-26 02:28:00,29.7,13.4,30.01,WSW,246,0.0,0.0,50,0.00,,---,0.00,VWS V13.01,2013-03-26 08:28:00,
2013-03-26 02:34:00,29.7,14.2,30.01,WSW,246,0.0,0.0,52,0.00,,---,0.00,VWS V13.01,2013-03-26 08:34:00,
2013-03-26 02:39:00,29.5,14.1,30.01,WSW,246,0.0,0.0,52,0.00,,---,0.00,VWS V13.01,2013-03-26 08:39:00,
2013-03-26 02:44:00,29.5,13.6,30.01,WSW,246,0.0,0.0,51,0.00,,---,0.00,VWS V13.01,2013-03-26 08:44:00,
2013-03-26 02:49:00,29.5,14.1,30.01,WSW,246,0.0,0.0,52,0.00,,---,0.00,VWS V13.01,2013-03-26 08:49:00,
2013-03-26 02:54:00,29.5,12.7,30.01,WSW,246,0.0,0.0,49,0.00,,---,0.00,VWS V13.01,2013-03-26 08:54:00,
2013-03-26 02:59:00,29.5,13.2,30.01,WSW,246,0.0,0.0,50,0.00,,---,0.00,VWS V13.01,2013-03-26 08:59:00,
2013-03-26 03:05:00,29.7,13.8,30.01,WSW,246,0.0,0.0,51,0.00,,---,0.00,VWS V13.01,2013-03-26 09:05:00,
2013-03-26 03:10:00,29.8,14.3,30.01,WSW,246,0.0,0.0,52,0.00,,---,0.00,VWS V13.01,2013-03-26 09:10:00,
2013-03-26 03:16:00,30.0,14.1,29.99,WSW,246,0.0,0.0,51,0.00,,---,0.00,VWS V13.01,2013-03-26 09:16:00,
2013-03-26 03:21:00,30.1,12.3,29.99,WSW,246,0.0,0.0,47,0.00,,---,0.00,VWS V13.01,2013-03-26 09:21:00,
2013-03-26 03:26:00,30.3,13.9,29.99,WSW,247,0.0,0.0,50,0.00,,---,0.00,VWS V13.01,2013-03-26 09:26:00,
2013-03-26 03:31:00,30.3,14.4,29.99,WSW,246,0.0,0.0,51,0.00,,---,0.00,VWS V13.01,2013-03-26 09:31:00,
2013-03-26 03:36:00,30.3,14.4,29.99,WSW,246,0.0,0.0,51,0.00,,---,0.00,VWS V13.01,2013-03-26 09:36:00,
2013-03-26 03:42:00,30.3,13.9,29.99,WSW,246,0.0,0.0,50,0.00,,---,0.00,VWS V13.01,2013-03-26 09:42:00,
2013-03-26 03:47:00,30.1,15.1,30.00,WSW,246,0.0,0.0,53,0.00,,---,0.00,VWS V13.01,2013-03-26 09:47:00,
2013-03-26 03:52:00,30.1,14.6,30.00,WSW,247,0.0,0.0,52,0.00,,---,0.00,VWS V13.01,2013-03-26 09:52:00,
2013-03-26 03:57:00,30.1,15.1,30.00,WSW,246,0.0,0.0,53,0.00,,---,0.00,VWS V13.01,2013-03-26 09:57:00,
2013-03-26 04:03:00,30.3,13.9,30.00,WSW,247,0.0,0.0,50,0.00,,---,0.00,VWS V13.01,2013-03-26 10:03:00,
2013-03-26 04:08:00,30.3,14.4,30.00,WSW,247,0.0,0.0,51,0.00,,---,0.00,VWS V13.01,2013-03-26 10:08:00,
2013-03-26 04:13:00,30.3,14.8,30.00,WSW,247,0.0,0.0,52,0.00,,---,0.00,VWS V13.01,2013-03-26 10:13:00,
2013-03-26 04:19:00,30.3,14.8,30.01,WSW,247,0.0,0.0,52,0.00,,---,0.00,VWS V13.01,2013-03-26 10:19:00,
2013-03-26 04:24:00,30.3,13.9,30.01,WSW,247,0.0,0.0,50,0.00,,---,0.00,VWS V13.01,2013-03-26 10:24:00,
2013-03-26 04:29:00,30.4,12.6,30.01,WSW,247,0.0,0.0,47,0.00,,---,0.00,VWS V13.01,2013-03-26 10:29:00,
2013-03-26 04:35:00,30.4,15.3,30.01,WSW,247,0.0,0.0,53,0.00,,---,0.00,VWS V13.01,2013-03-26 10:35:00,
2013-03-26 04:40:00,30.3,14.4,30.01,WSW,247,0.0,0.0,51,0.00,,---,0.00,VWS V13.01,2013-03-26 10:40:00,
2013-03-26 04:45:00,30.1,14.2,30.01,WSW,247,0.0,0.0,51,0.00,,---,0.00,VWS V13.01,2013-03-26 10:45:00,
2013-03-26 04:50:00,30.1,14.2,30.01,WSW,246,0.0,0.0,51,0.00,,---,0.00,VWS V13.01,2013-03-26 10:50:00,
2013-03-26 04:56:00,30.0,14.1,30.01,WSW,246,0.0,0.0,51,0.00,,---,0.00,VWS V13.01,2013-03-26 10:56:00,
2013-03-26 05:01:00,29.8,12.5,30.01,WSW,246,0.0,0.0,48,0.00,,---,0.00,VWS V13.01,2013-03-26 11:01:00,
2013-03-26 05:06:00,29.8,14.3,30.01,WSW,246,0.0,0.0,52,0.00,,---,0.00,VWS V13.01,2013-03-26 11:06:00,
2013-03-26 05:12:00,29.8,14.8,30.01,WSW,246,0.0,0.0,53,0.00,,---,0.00,VWS V13.01,2013-03-26 11:12:00,
2013-03-26 05:17:00,29.7,15.1,30.01,WSW,246,0.0,0.0,54,0.00,,---,0.00,VWS V13.01,2013-03-26 11:17:00,
2013-03-26 05:22:00,29.7,14.2,30.01,WSW,246,0.0,0.0,52,0.00,,---,0.00,VWS V13.01,2013-03-26 11:22:00,
2013-03-26 05:27:00,29.5,14.1,30.01,WSW,246,0.0,0.0,52,0.00,,---,0.00,VWS V13.01,2013-03-26 11:27:00,
2013-03-26 05:32:00,29.3,13.9,30.02,WSW,246,0.0,0.0,52,0.00,,---,0.00,VWS V13.01,2013-03-26 11:32:00,
2013-03-26 05:37:00,29.0,14.0,30.02,WSW,246,0.0,0.0,53,0.00,,---,0.00,VWS V13.01,2013-03-26 11:37:00,
2013-03-26 05:43:00,28.8,13.4,30.02,WSW,246,0.0,0.0,52,0.00,,---,0.00,VWS V13.01,2013-03-26 11:43:00,
2013-03-26 05:48:00,28.8,13.4,30.02,WSW,246,0.0,0.0,52,0.00,,---,0.00,VWS V13.01,2013-03-26 11:48:00,
2013-03-26 05:53:00,28.8,12.5,30.02,WSW,246,0.0,0.0,50,0.00,,---,0.00,VWS V13.01,2013-03-26 11:53:00,
2013-03-26 05:58:00,28.7,13.3,30.02,WSW,246,0.0,0.0,52,0.00,,---,0.00,VWS V13.01,2013-03-26 11:58:00,
2013-03-26 06:03:00,28.4,13.5,30.02,WSW,246,0.0,0.0,53,0.00,,---,0.00,VWS V13.01,2013-03-26 12:03:00,
2013-03-26 06:08:00,28.1,13.6,30.02,WSW,246,0.0,0.0,54,0.00,,---,0.00,VWS V13.01,2013-03-26 12:08:00,
2013-03-26 06:14:00,27.9,13.8,30.02,WSW,246,0.0,0.0,55,0.00,,---,0.00,VWS V13.01,2013-03-26 12:14:00,
2013-03-26 06:19:00,27.9,14.6,30.04,WSW,246,0.0,0.0,57,0.00,,---,0.00,VWS V13.01,2013-03-26 12:19:00,
2013-03-26 06:24:00,27.9,13.8,30.04,WSW,246,0.0,0.0,55,0.00,,---,0.00,VWS V13.01,2013-03-26 12:24:00,
2013-03-26 06:29:00,28.1,14.0,30.04,WSW,246,0.0,0.0,55,0.00,,---,0.00,VWS V13.01,2013-03-26 12:29:00,
2013-03-26 06:34:00,28.2,14.5,30.04,WSW,246,0.0,0.0,56,0.00,,---,0.00,VWS V13.01,2013-03-26 12:34:00,
2013-03-26 06:40:00,28.4,14.7,30.04,WSW,246,0.0,0.0,56,0.00,,---,0.00,VWS V13.01,2013-03-26 12:40:00,
2013-03-26 06:45:00,28.7,15.0,30.04,WSW,246,0.0,0.0,56,0.00,,---,0.00,VWS V13.01,2013-03-26 12:45:00,
2013-03-26 06:50:00,29.0,14.9,30.03,WSW,246,0.0,0.0,55,0.00,,---,0.00,VWS V13.01,2013-03-26 12:50:00,
2013-03-26 06:55:00,29.1,15.0,30.03,WSW,246,0.0,0.0,55,0.00,,---,0.00,VWS V13.01,2013-03-26 12:55:00,
2013-03-26 07:00:00,29.3,14.3,30.03,WSW,246,0.0,0.0,53,0.00,,---,0.00,VWS V13.01,2013-03-26 13:00:00,
2013-03-26 07:05:00,29.4,13.5,30.03,WSW,246,0.0,0.0,51,0.00,,---,0.00,VWS V13.01,2013-03-26 13:05:00,
2013-03-26 07:10:00,29.5,13.2,30.03,WSW,246,0.0,0.0,50,0.00,,---,0.00,VWS V13.01,2013-03-26 13:10:00,
2013-03-26 07:16:00,29.7,12.4,30.06,WSW,246,0.0,0.0,48,0.00,,---,0.00,VWS V13.01,2013-03-26 13:16:00,
2013-03-26 07:21:00,29.7,13.8,30.06,WSW,246,0.0,0.0,51,0.00,,---,0.00,VWS V13.01,2013-03-26 13:21:00,
2013-03-26 07:26:00,29.7,14.2,30.06,WSW,246,0.0,0.0,52,0.00,,---,0.00,VWS V13.01,2013-03-26 13:26:00,
2013-03-26 07:31:00,29.7,15.5,30.07,WSW,246,0.0,0.0,55,0.00,,---,0.00,VWS V13.01,2013-03-26 13:31:00,
2013-03-26 07:37:00,29.5,13.6,30.07,WSW,246,0.0,0.0,51,0.00,,---,0.00,VWS V13.01,2013-03-26 13:37:00,
2013-03-26 07:42:00,29.5,15.3,30.07,WSW,246,0.0,0.0,55,0.00,,---,0.00,VWS V13.01,2013-03-26 13:42:00,
2013-03-26 07:47:00,29.5,15.3,30.07,WSW,246,0.0,0.0,55,0.00,,---,0.00,VWS V13.01,2013-03-26 13:47:00,
2013-03-26 07:52:00,29.5,15.3,30.07,WSW,246,0.0,0.0,55,0.00,,---,0.00,VWS V13.01,2013-03-26 13:52:00,
2013-03-26 07:57:00,29.5,15.3,30.07,WSW,246,0.0,0.0,55,0.00,,---,0.00,VWS V13.01,2013-03-26 13:57:00,
2013-03-26 08:03:00,29.5,16.6,30.06,WSW,246,0.0,0.0,58,0.00,,---,0.00,VWS V13.01,2013-03-26 14:03:00,
2013-03-26 08:08:00,29.5,14.1,30.06,WSW,246,0.0,0.0,52,0.00,,---,0.00,VWS V13.01,2013-03-26 14:08:00,
2013-03-26 08:13:00,29.7,15.5,30.06,WSW,246,0.0,0.0,55,0.00,,---,0.00,VWS V13.01,2013-03-26 14:13:00,
2013-03-26 08:18:00,29.7,14.2,30.08,WSW,246,0.0,0.0,52,0.00,,---,0.00,VWS V13.01,2013-03-26 14:18:00,
2013-03-26 08:23:00,29.7,13.8,30.08,WSW,246,0.0,0.0,51,0.00,,---,0.00,VWS V13.01,2013-03-26 14:23:00,
2013-03-26 08:29:00,29.7,12.9,30.08,WSW,246,0.0,0.0,49,0.00,,---,0.00,VWS V13.01,2013-03-26 14:29:00,
2013-03-26 08:34:00,29.8,13.0,30.09,WSW,246,0.0,0.0,49,0.00,,---,0.00,VWS V13.01,2013-03-26 14:34:00,
2013-03-26 08:39:00,29.8,12.5,30.09,WSW,246,0.0,0.0,48,0.00,,---,0.00,VWS V13.01,2013-03-26 14:39:00,
2013-03-26 08:45:00,30.0,12.7,30.09,WSW,246,0.0,0.0,48,0.00,,---,0.00,VWS V13.01,2013-03-26 14:45:00,
2013-03-26 08:50:00,30.1,11.8,30.09,WSW,246,0.0,0.0,46,0.00,,---,0.00,VWS V13.01,2013-03-26 14:50:00,
2013-03-26 08:55:00,30.3,12.5,30.09,WSW,246,0.0,0.0,47,0.00,,---,0.00,VWS V13.01,2013-03-26 14:55:00,
2013-03-26 09:01:00,30.6,11.8,30.09,WSW,246,0.0,0.0,45,0.00,,---,0.00,VWS V13.01,2013-03-26 15:01:00,
2013-03-26 09:06:00,30.7,12.4,30.09,WSW,246,0.0,0.0,46,0.00,,---,0.00,VWS V13.01,2013-03-26 15:06:00,
2013-03-26 09:11:00,30.9,12.6,30.09,WSW,246,0.0,0.0,46,0.00,,---,0.00,VWS V13.01,2013-03-26 15:11:00,
2013-03-26 09:17:00,31.2,11.8,30.09,North,355,0.0,0.0,44,0.00,,---,0.00,VWS V13.01,2013-03-26 15:17:00,
2013-03-26 09:22:00,31.5,12.1,30.09,North,355,0.0,0.0,44,0.00,,---,0.00,VWS V13.01,2013-03-26 15:22:00,
2013-03-26 09:27:00,31.8,12.4,30.09,North,355,0.0,0.0,44,0.00,,---,0.00,VWS V13.01,2013-03-26 15:27:00,
2013-03-26 09:32:00,32.2,13.3,30.08,North,355,0.0,0.0,45,0.00,,---,0.00,VWS V13.01,2013-03-26 15:32:00,
2013-03-26 09:38:00,32.7,12.7,30.08,North,355,0.0,0.0,43,0.00,,---,0.00,VWS V13.01,2013-03-26 15:38:00,
2013-03-26 09:43:00,33.2,13.1,30.08,North,355,0.0,1.0,43,0.00,,---,0.00,VWS V13.01,2013-03-26 15:43:00,
2013-03-26 09:49:00,33.8,13.1,30.07,North,9,0.0,1.0,42,0.00,,---,0.00,VWS V13.01,2013-03-26 15:49:00,
2013-03-26 09:54:00,34.4,13.7,30.07,North,9,0.0,1.0,42,0.00,,---,0.00,VWS V13.01,2013-03-26 15:54:00,
2013-03-26 09:59:00,35.0,13.7,30.07,North,11,0.0,0.0,41,0.00,,---,0.00,VWS V13.01,2013-03-26 15:59:00,
2013-03-26 10:04:00,35.5,13.0,30.06,North,360,0.0,1.0,39,0.00,,---,0.00,VWS V13.01,2013-03-26 16:04:00,
2013-03-26 10:09:00,35.8,13.3,30.06,North,360,0.0,0.0,39,0.00,,---,0.00,VWS V13.01,2013-03-26 16:09:00,
2013-03-26 10:15:00,36.2,13.6,30.06,North,360,0.0,1.0,39,0.00,,---,0.00,VWS V13.01,2013-03-26 16:15:00,
2013-03-26 10:20:00,36.6,14.0,30.06,North,360,0.0,1.0,39,0.00,,---,0.00,VWS V13.01,2013-03-26 16:20:00,
2013-03-26 10:25:00,37.0,13.2,30.06,North,360,0.0,1.0,37,0.00,,---,0.00,VWS V13.01,2013-03-26 16:25:00,
2013-03-26 10:30:00,37.5,13.6,30.05,North,360,0.0,1.0,37,0.00,,---,0.00,VWS V13.01,2013-03-26 16:30:00,
2013-03-26 10:35:00,37.8,15.1,30.05,North,360,0.0,1.0,39,0.00,,---,0.00,VWS V13.01,2013-03-26 16:35:00,
2013-03-26 10:41:00,38.0,14.7,30.05,North,360,0.0,0.0,38,0.00,,---,0.00,VWS V13.01,2013-03-26 16:41:00,
2013-03-26 10:46:00,38.2,13.6,30.05,NE,39,0.0,1.0,36,0.00,,---,0.00,VWS V13.01,2013-03-26 16:46:00,
2013-03-26 10:51:00,38.5,13.2,30.05,North,9,2.0,3.0,35,0.00,,---,0.00,VWS V13.01,2013-03-26 16:51:00,
2013-03-26 10:56:00,38.8,14.8,30.05,NNE,32,2.0,2.0,37,0.00,,---,0.00,VWS V13.01,2013-03-26 16:56:00,
2013-03-26 11:02:00,39.1,14.4,30.04,East,80,0.0,1.0,36,0.00,,---,0.00,VWS V13.01,2013-03-26 17:02:00,
2013-03-26 11:07:00,39.2,13.9,30.04,NE,56,0.0,0.0,35,0.00,,---,0.00,VWS V13.01,2013-03-26 17:07:00,
2013-03-26 11:12:00,39.2,13.9,30.04,NE,52,0.0,0.0,35,0.00,,---,0.00,VWS V13.01,2013-03-26 17:12:00,
2013-03-26 11:17:00,39.1,14.4,30.03,NE,52,0.0,0.0,36,0.00,,---,0.00,VWS V13.01,2013-03-26 17:17:00,
2013-03-26 11:22:00,39.1,13.8,30.03,NE,48,1.0,1.0,35,0.00,,---,0.00,VWS V13.01,2013-03-26 17:22:00,
2013-03-26 11:28:00,39.2,13.9,30.03,NE,48,0.0,0.0,35,0.00,,---,0.00,VWS V13.01,2013-03-26 17:28:00,
2013-03-26 11:33:00,39.3,13.9,30.03,NE,48,0.0,1.0,35,0.00,,---,0.00,VWS V13.01,2013-03-26 17:33:00,
2013-03-26 11:38:00,39.3,14.6,30.03,East,98,0.0,1.0,36,0.00,,---,0.00,VWS V13.01,2013-03-26 17:38:00,
2013-03-26 11:43:00,39.5,16.0,30.03,East,88,0.0,1.0,38,0.00,,---,0.00,VWS V13.01,2013-03-26 17:43:00,
2013-03-26 11:48:00,40.1,15.9,30.01,West,278,0.0,2.0,37,0.00,,---,0.00,VWS V13.01,2013-03-26 17:48:00,
2013-03-26 11:54:00,40.8,16.6,30.01,East,92,0.0,2.0,37,0.00,,---,0.00,VWS V13.01,2013-03-26 17:54:00,
2013-03-26 11:59:00,41.2,16.3,30.01,West,269,1.0,3.0,36,0.00,,---,0.00,VWS V13.01,2013-03-26 17:59:00,
2013-03-26 12:04:00,41.2,16.9,30.00,ESE,103,0.0,2.0,37,0.00,,---,0.00,VWS V13.01,2013-03-26 18:04:00,
2013-03-26 12:09:00,41.2,16.9,30.00,WNW,286,3.0,3.0,37,0.00,,---,0.00,VWS V13.01,2013-03-26 18:09:00,
2013-03-26 12:15:00,41.5,15.9,30.00,SSE,165,0.0,3.0,35,0.00,,---,0.00,VWS V13.01,2013-03-26 18:15:00,
2013-03-26 12:20:00,42.1,16.4,29.99,North,355,0.0,4.0,35,0.00,,---,0.00,VWS V13.01,2013-03-26 18:20:00,
2013-03-26 12:25:00,42.9,17.1,29.99,West,277,3.0,3.0,35,0.00,,---,0.00,VWS V13.01,2013-03-26 18:25:00,
2013-03-26 12:30:00,43.8,15.9,29.99,West,267,4.0,5.0,32,0.00,,---,0.00,VWS V13.01,2013-03-26 18:30:00,
2013-03-26 12:35:00,43.9,16.7,29.98,NW,320,0.0,3.0,33,0.00,,---,0.00,VWS V13.01,2013-03-26 18:35:00,
2013-03-26 12:40:00,44.3,15.6,29.98,North,360,0.0,6.0,31,0.00,,---,0.00,VWS V13.01,2013-03-26 18:40:00,
2013-03-26 12:45:00,44.5,16.5,29.97,ENE,68,0.0,3.0,32,0.00,,---,0.00,VWS V13.01,2013-03-26 18:45:00,
2013-03-26 12:50:00,44.2,15.5,29.97,ENE,68,1.0,2.0,31,0.00,,---,0.00,VWS V13.01,2013-03-26 18:50:00,
2013-03-26 12:55:00,44.6,16.6,29.97,NNE,19,0.0,3.0,32,0.00,,---,0.00,VWS V13.01,2013-03-26 18:55:00,
2013-03-26 13:01:00,45.7,16.1,29.97,NE,36,0.0,2.0,30,0.00,,---,0.00,VWS V13.01,2013-03-26 19:01:00,
2013-03-26 13:06:00,46.7,15.3,29.97,NW,312,2.0,6.0,28,0.00,,---,0.00,VWS V13.01,2013-03-26 19:06:00,
2013-03-26 13:11:00,47.7,16.2,29.97,NE,38,0.0,5.0,28,0.00,,---,0.00,VWS V13.01,2013-03-26 19:11:00,
2013-03-26 13:16:00,48.5,16.1,29.95,East,91,0.0,1.0,27,0.00,,---,0.00,VWS V13.01,2013-03-26 19:16:00,
2013-03-26 13:21:00,49.1,16.6,29.95,WNW,302,0.0,5.0,27,0.00,,---,0.00,VWS V13.01,2013-03-26 19:21:00,
2013-03-26 13:26:00,49.2,16.7,29.95,West,275,2.0,5.0,27,0.00,,---,0.00,VWS V13.01,2013-03-26 19:26:00,
2013-03-26 13:32:00,47.9,17.2,29.95,North,5,2.0,2.0,29,0.00,,---,0.00,VWS V13.01,2013-03-26 19:32:00,
2013-03-26 13:37:00,47.7,16.2,29.95,East,98,1.0,1.0,28,0.00,,---,0.00,VWS V13.01,2013-03-26 19:37:00,
2013-03-26 13:42:00,48.9,17.2,29.95,ENE,78,1.0,2.0,28,0.00,,---,0.00,VWS V13.01,2013-03-26 19:42:00,
2013-03-26 13:47:00,49.6,19.5,29.93,ENE,67,1.0,2.0,30,0.00,,---,0.00,VWS V13.01,2013-03-26 19:47:00,
2013-03-26 13:53:00,50.1,18.3,29.93,WNW,299,0.0,0.0,28,0.00,,---,0.00,VWS V13.01,2013-03-26 19:53:00,
2013-03-26 13:58:00,49.2,17.5,29.93,North,10,0.0,4.0,28,0.00,,---,0.00,VWS V13.01,2013-03-26 19:58:00,
2013-03-26 14:03:00,49.1,16.6,29.94,NNE,15,0.0,3.0,27,0.00,,---,0.00,VWS V13.01,2013-03-26 20:03:00,
2013-03-26 14:09:00,49.9,17.3,29.94,SW,232,2.0,3.0,27,0.00,,---,0.00,VWS V13.01,2013-03-26 20:09:00,
2013-03-26 14:14:00,50.8,16.3,29.94,West,263,0.0,6.0,25,0.00,,---,0.00,VWS V13.01,2013-03-26 20:14:00,
2013-03-26 14:19:00,51.7,18.8,29.93,ESE,108,0.0,2.0,27,0.00,,---,0.00,VWS V13.01,2013-03-26 20:19:00,
2013-03-26 14:25:00,51.1,18.3,29.93,West,265,5.0,9.0,27,0.00,,---,0.00,VWS V13.01,2013-03-26 20:25:00,
2013-03-26 14:30:00,50.2,17.5,29.93,North,5,3.0,5.0,27,0.00,,---,0.00,VWS V13.01,2013-03-26 20:30:00,
2013-03-26 14:35:00,51.9,16.3,29.93,East,90,0.0,2.0,24,0.00,,---,0.00,VWS V13.01,2013-03-26 20:35:00,
2013-03-26 14:40:00,53.3,18.4,29.93,West,277,0.0,5.0,25,0.00,,---,0.00,VWS V13.01,2013-03-26 20:40:00,
2013-03-26 14:45:00,52.8,18.0,29.92,West,273,0.0,0.0,25,0.00,,---,0.00,VWS V13.01,2013-03-26 20:45:00,
2013-03-26 14:51:00,51.7,16.1,29.92,NNW,337,0.0,3.0,24,0.00,,---,0.00,VWS V13.01,2013-03-26 20:51:00,
2013-03-26 14:56:00,49.9,16.4,29.92,WSW,249,1.0,5.0,26,0.00,,---,0.00,VWS V13.01,2013-03-26 20:56:00,
2013-03-26 15:01:00,48.9,17.2,29.94,West,271,0.0,1.0,28,0.00,,---,0.00,VWS V13.01,2013-03-26 21:01:00,
2013-03-26 15:07:00,49.4,16.0,29.94,NNE,16,0.0,2.0,26,0.00,,---,0.00,VWS V13.01,2013-03-26 21:07:00,
2013-03-26 15:12:00,49.4,16.0,29.94,WSW,246,0.0,1.0,26,0.00,,---,0.00,VWS V13.01,2013-03-26 21:12:00,
2013-03-26 15:17:00,48.9,17.2,29.93,WSW,252,1.0,3.0,28,0.00,,---,0.00,VWS V13.01,2013-03-26 21:17:00,
2013-03-26 15:22:00,48.6,16.1,29.93,WSW,253,2.0,4.0,27,0.00,,---,0.00,VWS V13.01,2013-03-26 21:22:00,
2013-03-26 15:27:00,48.3,15.9,29.93,WNW,288,0.0,3.0,27,0.00,,---,0.00,VWS V13.01,2013-03-26 21:27:00,
2013-03-26 15:32:00,48.9,16.4,29.93,WSW,250,1.0,1.0,27,0.00,,---,0.00,VWS V13.01,2013-03-26 21:32:00,
2013-03-26 15:37:00,49.6,17.0,29.93,ESE,107,0.0,1.0,27,0.00,,---,0.00,VWS V13.01,2013-03-26 21:37:00,
2013-03-26 15:42:00,49.9,17.3,29.93,East,92,0.0,0.0,27,0.00,,---,0.00,VWS V13.01,2013-03-26 21:42:00,
2013-03-26 15:48:00,49.9,17.3,29.92,East,92,1.0,1.0,27,0.00,,---,0.00,VWS V13.01,2013-03-26 21:48:00,
2013-03-26 15:53:00,50.4,17.7,29.92,ENE,75,1.0,1.0,27,0.00,,---,0.00,VWS V13.01,2013-03-26 21:53:00,
2013-03-26 15:58:00,50.5,16.0,29.92,SW,222,1.0,2.0,25,0.00,,---,0.00,VWS V13.01,2013-03-26 21:58:00,
2013-03-26 16:03:00,49.5,16.0,29.92,WSW,245,0.0,1.0,26,0.00,,---,0.00,VWS V13.01,2013-03-26 22:03:00,
2013-03-26 16:09:00,48.8,17.2,29.92,WSW,245,0.0,1.0,28,0.00,,---,0.00,VWS V13.01,2013-03-26 22:09:00,
2013-03-26 16:14:00,48.5,16.9,29.92,WSW,245,0.0,1.0,28,0.00,,---,0.00,VWS V13.01,2013-03-26 22:14:00,
2013-03-26 16:19:00,48.3,15.9,29.92,WSW,251,0.0,0.0,27,0.00,,---,0.00,VWS V13.01,2013-03-26 22:19:00,
2013-03-26 16:24:00,48.8,14.6,29.92,East,98,0.0,1.0,25,0.00,,---,0.00,VWS V13.01,2013-03-26 22:24:00,
2013-03-26 16:29:00,49.2,14.9,29.92,ENE,78,0.0,2.0,25,0.00,,---,0.00,VWS V13.01,2013-03-26 22:29:00,
2013-03-26 16:35:00,48.8,14.6,29.92,NE,56,0.0,3.0,25,0.00,,---,0.00,VWS V13.01,2013-03-26 22:35:00,
2013-03-26 16:40:00,48.2,14.9,29.92,WSW,254,0.0,8.0,26,0.00,,---,0.00,VWS V13.01,2013-03-26 22:40:00,
2013-03-26 16:45:00,47.9,14.7,29.92,West,269,0.0,1.0,26,0.00,,---,0.00,VWS V13.01,2013-03-26 22:45:00,
2013-03-26 16:50:00,47.6,13.5,29.92,West,265,0.0,0.0,25,0.00,,---,0.00,VWS V13.01,2013-03-26 22:50:00,
2013-03-26 16:55:00,47.6,14.4,29.92,WNW,282,1.0,2.0,26,0.00,,---,0.00,VWS V13.01,2013-03-26 22:55:00,
2013-03-26 17:01:00,47.6,14.4,29.92,WSW,242,0.0,1.0,26,0.00,,---,0.00,VWS V13.01,2013-03-26 23:01:00,
2013-03-26 17:06:00,47.6,13.5,29.92,WNW,286,0.0,6.0,25,0.00,,---,0.00,VWS V13.01,2013-03-26 23:06:00,
2013-03-26 17:11:00,47.6,12.6,29.92,SSW,198,1.0,4.0,24,0.00,,---,0.00,VWS V13.01,2013-03-26 23:11:00,
2013-03-26 17:17:00,47.9,13.8,29.93,SSE,147,0.0,1.0,25,0.00,,---,0.00,VWS V13.01,2013-03-26 23:17:00,
2013-03-26 17:22:00,47.9,12.9,29.93,ESE,104,0.0,1.0,24,0.00,,---,0.00,VWS V13.01,2013-03-26 23:22:00,
2013-03-26 17:27:00,47.9,12.9,29.93,SW,223,2.0,3.0,24,0.00,,---,0.00,VWS V13.01,2013-03-26 23:27:00,
2013-03-26 17:32:00,47.7,12.7,29.93,SSW,211,0.0,2.0,24,0.00,,---,0.00,VWS V13.01,2013-03-26 23:32:00,
2013-03-26 17:37:00,47.7,11.7,29.93,North,350,1.0,4.0,23,0.00,,---,0.00,VWS V13.01,2013-03-26 23:37:00,
2013-03-26 17:42:00,47.7,10.7,29.93,NNE,33,0.0,5.0,22,0.00,,---,0.00,VWS V13.01,2013-03-26 23:42:00,
2013-03-26 17:47:00,47.7,12.7,29.93,WSW,258,0.0,0.0,24,0.00,,---,0.00,VWS V13.01,2013-03-26 23:47:00,
2013-03-26 17:53:00,47.3,14.2,29.93,NE,41,2.0,4.0,26,0.00,,---,0.00,VWS V13.01,2013-03-26 23:53:00,
2013-03-26 17:58:00,47.0,14.8,29.93,WSW,240,0.0,3.0,27,0.00,,---,0.00,VWS V13.01,2013-03-26 23:58:00,
2013-03-26 18:03:00,46.7,15.3,29.93,West,267,0.0,5.0,28,0.00,,---,0.00,VWS V13.01,2013-03-27 00:03:00,
2013-03-26 18:09:00,46.4,15.1,29.93,West,260,1.0,1.0,28,0.00,,---,0.00,VWS V13.01,2013-03-27 00:09:00,
2013-03-26 18:14:00,46.1,14.8,29.93,SW,230,1.0,4.0,28,0.00,,---,0.00,VWS V13.01,2013-03-27 00:14:00,
2013-03-26 18:19:00,46.1,14.8,29.94,SW,218,0.0,1.0,28,0.00,,---,0.00,VWS V13.01,2013-03-27 00:19:00,
2013-03-26 18:24:00,45.8,13.7,29.94,WSW,257,1.0,5.0,27,0.00,,---,0.00,VWS V13.01,2013-03-27 00:24:00,
2013-03-26 18:30:00,46.0,14.7,29.94,WNW,284,0.0,4.0,28,0.00,,---,0.00,VWS V13.01,2013-03-27 00:30:00,
2013-03-26 18:35:00,45.8,13.7,29.94,WSW,250,0.0,4.0,27,0.00,,---,0.00,VWS V13.01,2013-03-27 00:35:00,
2013-03-26 18:40:00,45.5,14.3,29.94,SW,221,1.0,1.0,28,0.00,,---,0.00,VWS V13.01,2013-03-27 00:40:00,
2013-03-26 18:45:00,45.4,14.2,29.94,SW,229,0.0,1.0,28,0.00,,---,0.00,VWS V13.01,2013-03-27 00:45:00,
2013-03-26 18:51:00,44.9,13.8,29.94,SW,229,0.0,0.0,28,0.00,,---,0.00,VWS V13.01,2013-03-27 00:51:00,
2013-03-26 18:56:00,44.1,16.1,29.94,SW,229,0.0,1.0,32,0.00,,---,0.00,VWS V13.01,2013-03-27 00:56:00,
2013-03-26 19:01:00,43.2,15.4,29.96,SW,229,0.0,0.0,32,0.00,,---,0.00,VWS V13.01,2013-03-27 01:01:00,
2013-03-26 19:06:00,42.6,15.5,29.96,SW,229,0.0,0.0,33,0.00,,---,0.00,VWS V13.01,2013-03-27 01:06:00,
2013-03-26 19:12:00,42.1,15.8,29.96,SW,229,0.0,0.0,34,0.00,,---,0.00,VWS V13.01,2013-03-27 01:12:00,
2013-03-26 19:17:00,41.5,15.9,29.96,SW,229,0.0,0.0,35,0.00,,---,0.00,VWS V13.01,2013-03-27 01:17:00,
2013-03-26 19:22:00,41.1,15.6,29.96,SW,229,0.0,0.0,35,0.00,,---,0.00,VWS V13.01,2013-03-27 01:22:00,
2013-03-26 19:28:00,40.6,15.8,29.96,SW,229,0.0,0.0,36,0.00,,---,0.00,VWS V13.01,2013-03-27 01:28:00,
2013-03-26 19:33:00,40.2,16.0,29.97,SW,229,0.0,0.0,37,0.00,,---,0.00,VWS V13.01,2013-03-27 01:33:00,
2013-03-26 19:38:00,39.8,15.7,29.97,SW,229,0.0,0.0,37,0.00,,---,0.00,VWS V13.01,2013-03-27 01:38:00,
2013-03-26 19:43:00,39.3,16.4,29.97,SW,229,0.0,0.0,39,0.00,,---,0.00,VWS V13.01,2013-03-27 01:43:00,
2013-03-26 19:49:00,38.9,16.6,29.98,SW,229,0.0,0.0,40,0.00,,---,0.00,VWS V13.01,2013-03-27 01:49:00,
2013-03-26 19:54:00,38.6,17.0,29.98,SW,229,0.0,0.0,41,0.00,,---,0.00,VWS V13.01,2013-03-27 01:54:00,
2013-03-26 19:59:00,38.2,16.6,29.98,SW,228,0.0,0.0,41,0.00,,---,0.00,VWS V13.01,2013-03-27 01:59:00,
2013-03-26 20:05:00,37.6,16.6,29.99,SW,228,0.0,0.0,42,0.00,,---,0.00,VWS V13.01,2013-03-27 02:05:00,
2013-03-26 20:10:00,37.0,16.6,29.99,ESE,103,0.0,1.0,43,0.00,,---,0.00,VWS V13.01,2013-03-27 02:10:00,
2013-03-26 20:15:00,36.6,16.2,29.99,ESE,103,0.0,0.0,43,0.00,,---,0.00,VWS V13.01,2013-03-27 02:15:00,
2013-03-26 20:20:00,36.3,16.5,29.99,ESE,103,0.0,0.0,44,0.00,,---,0.00,VWS V13.01,2013-03-27 02:20:00,
2013-03-26 20:25:00,35.9,17.1,29.99,ESE,103,0.0,1.0,46,0.00,,---,0.00,VWS V13.01,2013-03-27 02:25:00,
2013-03-26 20:30:00,35.5,17.8,29.99,ESE,103,0.0,0.0,48,0.00,,---,0.00,VWS V13.01,2013-03-27 02:30:00,
2013-03-26 20:35:00,35.3,17.1,30.00,ESE,103,0.0,0.0,47,0.00,,---,0.00,VWS V13.01,2013-03-27 02:35:00,
2013-03-26 20:40:00,35.5,17.3,30.00,ESE,103,0.0,0.0,47,0.00,,---,0.00,VWS V13.01,2013-03-27 02:40:00,
2013-03-26 20:45:00,35.6,17.4,30.01,ESE,103,0.0,0.0,47,0.00,,---,0.00,VWS V13.01,2013-03-27 02:45:00,
2013-03-26 20:50:00,35.8,18.0,30.01,ESE,103,0.0,0.0,48,0.00,,---,0.00,VWS V13.01,2013-03-27 02:50:00,
2013-03-26 20:56:00,35.6,17.9,30.01,ESE,103,0.0,0.0,48,0.00,,---,0.00,VWS V13.01,2013-03-27 02:56:00,
2013-03-26 21:01:00,35.6,17.9,30.02,ESE,103,0.0,0.0,48,0.00,,---,0.00,VWS V13.01,2013-03-27 03:01:00,
2013-03-26 21:06:00,35.5,18.2,30.02,ESE,103,0.0,0.0,49,0.00,,---,0.00,VWS V13.01,2013-03-27 03:06:00,
2013-03-26 21:11:00,35.3,18.1,30.02,ESE,103,0.0,0.0,49,0.00,,---,0.00,VWS V13.01,2013-03-27 03:11:00,
2013-03-26 21:16:00,35.2,18.0,30.00,ESE,103,0.0,0.0,49,0.00,,---,0.00,VWS V13.01,2013-03-27 03:16:00,
2013-03-26 21:21:00,35.0,17.8,30.00,ESE,103,0.0,0.0,49,0.00,,---,0.00,VWS V13.01,2013-03-27 03:21:00,
2013-03-26 21:26:00,34.9,17.7,30.00,ESE,103,0.0,0.0,49,0.00,,---,0.00,VWS V13.01,2013-03-27 03:26:00,
2013-03-26 21:31:00,34.9,18.2,30.00,ESE,103,0.0,0.0,50,0.00,,---,0.00,VWS V13.01,2013-03-27 03:31:00,
2013-03-26 21:36:00,34.6,17.9,30.00,ESE,103,0.0,0.0,50,0.00,,---,0.00,VWS V13.01,2013-03-27 03:36:00,
2013-03-26 21:42:00,34.1,17.9,30.00,ESE,103,0.0,0.0,51,0.00,,---,0.00,VWS V13.01,2013-03-27 03:42:00,
2013-03-26 21:47:00,34.0,18.2,30.01,ESE,103,0.0,0.0,52,0.00,,---,0.00,VWS V13.01,2013-03-27 03:47:00,
2013-03-26 21:52:00,34.0,17.8,30.01,ESE,103,0.0,0.0,51,0.00,,---,0.00,VWS V13.01,2013-03-27 03:52:00,
2013-03-26 21:58:00,33.7,18.0,30.01,ESE,103,0.0,0.0,52,0.00,,---,0.00,VWS V13.01,2013-03-27 03:58:00,
2013-03-26 22:00:00,33.7,18.0,30.01,ESE,103,0.0,1.0,52,0.00,,---,0.00,VWS V13.01,2013-03-27 04:00:00,
2013-03-26 22:01:00,33.5,18.2,30.02,ESE,103,0.0,1.0,53,0.00,,---,0.00,VWS V13.01,2013-03-27 04:01:00,
2013-03-26 22:04:00,33.5,18.2,30.02,ESE,103,0.0,1.0,53,0.00,,---,0.00,VWS V13.01,2013-03-27 04:04:00,
2013-03-26 22:09:00,33.7,18.4,30.02,ESE,103,0.0,0.0,53,0.00,,---,0.00,VWS V13.01,2013-03-27 04:09:00,
2013-03-26 22:15:00,34.0,18.2,30.02,ESE,103,0.0,0.0,52,0.00,,---,0.00,VWS V13.01,2013-03-27 04:15:00,
2013-03-26 22:20:00,34.1,18.3,30.00,ESE,103,0.0,0.0,52,0.00,,---,0.00,VWS V13.01,2013-03-27 04:20:00,
2013-03-26 22:25:00,34.3,18.5,30.00,ESE,103,0.0,0.0,52,0.00,,---,0.00,VWS V13.01,2013-03-27 04:25:00,
2013-03-26 22:30:00,34.4,18.6,30.00,ESE,103,0.0,0.0,52,0.00,,---,0.00,VWS V13.01,2013-03-27 04:30:00,
2013-03-26 22:35:00,34.6,18.8,30.00,ESE,103,0.0,0.0,52,0.00,,---,0.00,VWS V13.01,2013-03-27 04:35:00,
2013-03-26 22:41:00,34.6,18.8,30.00,ESE,103,0.0,0.0,52,0.00,,---,0.00,VWS V13.01,2013-03-27 04:41:00,
2013-03-26 22:46:00,34.6,18.8,29.99,ESE,103,0.0,0.0,52,0.00,,---,0.00,VWS V13.01,2013-03-27 04:46:00,
2013-03-26 22:51:00,34.6,18.8,29.99,ESE,103,0.0,0.0,52,0.00,,---,0.00,VWS V13.01,2013-03-27 04:51:00,
2013-03-26 22:56:00,34.7,18.9,29.99,ESE,103,0.0,0.0,52,0.00,,---,0.00,VWS V13.01,2013-03-27 04:56:00,
2013-03-26 23:01:00,34.7,18.9,29.99,ESE,103,0.0,0.0,52,0.00,,---,0.00,VWS V13.01,2013-03-27 05:01:00,
2013-03-26 23:06:00,34.6,18.3,29.99,ESE,103,0.0,1.0,51,0.00,,---,0.00,VWS V13.01,2013-03-27 05:06:00,
2013-03-26 23:11:00,34.3,18.1,29.99,ESE,103,0.0,1.0,51,0.00,,---,0.00,VWS V13.01,2013-03-27 05:11:00,
2013-03-26 23:16:00,34.1,17.9,29.99,ESE,103,0.0,1.0,51,0.00,,---,0.00,VWS V13.01,2013-03-27 05:16:00,
2013-03-26 23:21:00,33.8,17.6,29.99,ESE,103,0.0,1.0,51,0.00,,---,0.00,VWS V13.01,2013-03-27 05:21:00,
2013-03-26 23:26:00,33.4,17.7,29.99,ESE,103,0.0,1.0,52,0.00,,---,0.00,VWS V13.01,2013-03-27 05:26:00,
2013-03-26 23:31:00,33.2,17.5,29.99,ESE,103,0.0,2.0,52,0.00,,---,0.00,VWS V13.01,2013-03-27 05:31:00,
2013-03-26 23:36:00,33.2,17.9,29.99,ESE,103,0.0,0.0,53,0.00,,---,0.00,VWS V13.01,2013-03-27 05:36:00,
2013-03-26 23:42:00,33.2,17.9,29.99,ESE,103,0.0,0.0,53,0.00,,---,0.00,VWS V13.01,2013-03-27 05:42:00,
2013-03-26 23:47:00,33.1,18.3,29.99,ESE,103,0.0,0.0,54,0.00,,---,0.00,VWS V13.01,2013-03-27 05:47:00,
2013-03-26 23:52:00,32.9,18.5,29.99,ESE,103,0.0,1.0,55,0.00,,---,0.00,VWS V13.01,2013-03-27 05:52:00,
2013-03-26 23:57:00,32.9,18.5,29.99,ESE,103,0.0,0.0,55,0.00,,---,0.00,VWS V13.01,2013-03-27 05:57:00,